createdAt,value
2019-02-28T00:02:21.129Z,56.84
2019-02-28T00:04:45.507Z,56.31
2019-02-28T00:07:17.588Z,56.79
2019-02-28T00:09:44.033Z,56.91
2019-02-28T00:12:14.292Z,56.79
2019-02-28T00:14:42.403Z,57.20
2019-02-28T00:17:11.607Z,56.98
2019-02-28T00:19:40.878Z,56.83
2019-02-28T00:22:11.337Z,57.17
2019-02-28T00:24:39.506Z,56.80
2019-02-28T00:27:08.559Z,57.33
2019-02-28T00:29:37.948Z,57.41
2019-02-28T00:32:07.864Z,57.01
2019-02-28T00:34:39.321Z,57.54
2019-02-28T00:37:06.764Z,57.28
2019-02-28T00:39:36.070Z,57.18
2019-02-28T00:42:06.412Z,57.42
2019-02-28T00:44:35.552Z,57.42
2019-02-28T00:47:04.665Z,56.98
2019-02-28T00:49:35.263Z,57.32
2019-02-28T00:52:04.491Z,57.44
2019-02-28T00:54:33.321Z,57.44
2019-02-28T00:57:03.131Z,57.57
2019-02-28T00:59:32.462Z,57.44
2019-02-28T01:02:02.104Z,58.01
2019-02-28T01:04:31.090Z,58.06
2019-02-28T01:07:00.195Z,58.52
2019-02-28T01:09:30.177Z,58.78
2019-02-28T01:11:58.405Z,58.31
2019-02-28T01:14:27.575Z,58.11
2019-02-28T01:16:56.676Z,58.49
2019-02-28T01:19:25.836Z,58.62
2019-02-28T01:21:56.309Z,59.18
2019-02-28T01:24:25.635Z,59.00
2019-02-28T01:26:54.862Z,59.31
2019-02-28T01:29:24.040Z,58.80
2019-02-28T01:31:53.802Z,58.87
2019-02-28T01:34:23.156Z,59.66
2019-02-28T01:36:51.996Z,59.51
2019-02-28T01:39:21.916Z,59.41
2019-02-28T01:41:51.503Z,60.05
2019-02-28T01:44:20.771Z,59.14
2019-02-28T01:46:49.755Z,59.53
2019-02-28T01:49:18.971Z,60.08
2019-02-28T01:51:48.258Z,60.31
2019-02-28T01:54:17.868Z,60.14
2019-02-28T01:56:46.886Z,60.14
2019-02-28T01:59:16.157Z,60.29
2019-02-28T02:01:45.357Z,60.06
2019-02-28T02:04:14.811Z,60.55
2019-02-28T02:06:43.933Z,60.44
2019-02-28T02:09:13.145Z,60.49
2019-02-28T02:11:42.072Z,60.74
2019-02-28T02:14:11.869Z,60.97
2019-02-28T02:16:40.346Z,60.49
2019-02-28T02:19:09.799Z,60.68
2019-02-28T02:21:39.250Z,60.59
2019-02-28T02:24:08.452Z,60.20
2019-02-28T02:26:37.777Z,60.95
2019-02-28T02:29:07.049Z,60.38
2019-02-28T02:31:36.260Z,61.11
2019-02-28T02:34:05.626Z,60.61
2019-02-28T02:36:35.030Z,61.30
2019-02-28T02:39:05.196Z,61.17
2019-02-28T02:41:34.901Z,61.20
2019-02-28T02:44:04.293Z,61.22
2019-02-28T02:46:33.190Z,61.35
2019-02-28T02:49:02.283Z,61.11
2019-02-28T02:51:31.591Z,61.63
2019-02-28T02:54:00.808Z,61.95
2019-02-28T02:56:29.875Z,61.83
2019-02-28T02:59:01.223Z,61.76
2019-02-28T03:01:28.708Z,62.11
2019-02-28T03:03:57.483Z,62.21
2019-02-28T03:06:26.584Z,62.09
2019-02-28T03:08:55.823Z,61.92
2019-02-28T03:11:26.057Z,61.80
2019-02-28T03:13:54.879Z,61.67
2019-02-28T03:16:24.411Z,62.39
2019-02-28T03:18:56.494Z,62.01
2019-02-28T03:21:22.577Z,62.16
2019-02-28T03:23:51.805Z,62.03
2019-02-28T03:26:20.670Z,62.20
2019-02-28T03:28:49.629Z,62.38
2019-02-28T03:31:18.779Z,61.68
2019-02-28T03:33:47.927Z,61.76
2019-02-28T03:36:16.983Z,61.74
2019-02-28T03:38:49.786Z,62.02
2019-02-28T03:41:17.705Z,62.00
2019-02-28T03:43:44.861Z,61.36
2019-02-28T03:46:13.877Z,62.05
2019-02-28T03:48:43.465Z,61.27
2019-02-28T03:51:12.715Z,61.98
2019-02-28T03:53:42.475Z,62.23
2019-02-28T03:56:14.314Z,61.74
2019-02-28T03:58:42.865Z,62.40
2019-02-28T04:01:10.374Z,62.10
2019-02-28T04:03:39.370Z,62.21
2019-02-28T04:06:09.284Z,62.55
2019-02-28T04:08:38.287Z,62.98
2019-02-28T04:11:07.343Z,63.12
2019-02-28T04:13:36.389Z,62.63
2019-02-28T04:16:09.183Z,63.10
2019-02-28T04:18:34.567Z,63.05
2019-02-28T04:21:03.760Z,63.46
2019-02-28T04:23:36.113Z,62.88
2019-02-28T04:26:02.265Z,63.10
2019-02-28T04:28:31.253Z,62.66
2019-02-28T04:31:00.387Z,62.87
2019-02-28T04:33:29.642Z,63.36
2019-02-28T04:36:00.617Z,63.60
2019-02-28T04:38:27.766Z,63.21
2019-02-28T04:40:58.855Z,63.23
2019-02-28T04:43:26.032Z,63.69
2019-02-28T04:45:57.653Z,63.36
2019-02-28T04:48:25.098Z,63.34
2019-02-28T04:50:54.103Z,63.37
2019-02-28T04:53:23.261Z,63.54
2019-02-28T04:55:52.226Z,63.78
2019-02-28T04:58:22.346Z,63.97
2019-02-28T05:00:51.267Z,63.79
2019-02-28T05:03:20.919Z,63.44
2019-02-28T05:05:49.944Z,64.19
2019-02-28T05:08:19.895Z,63.73
2019-02-28T05:10:49.139Z,63.93
2019-02-28T05:13:22.771Z,64.10
2019-02-28T05:15:52.777Z,63.76
2019-02-28T05:18:21.763Z,63.77
2019-02-28T05:37:35.632Z,64.46
2019-02-28T05:40:06.148Z,64.18
2019-02-28T05:42:34.592Z,63.43
2019-02-28T05:45:04.313Z,63.14
2019-02-28T05:47:33.340Z,62.87
2019-02-28T05:50:02.754Z,62.50
2019-02-28T05:52:33.753Z,62.77
2019-02-28T05:55:00.772Z,62.47
2019-02-28T05:57:30.014Z,62.24
2019-02-28T06:00:01.951Z,62.08
2019-02-28T06:02:28.671Z,61.43
2019-02-28T06:04:57.610Z,61.79
2019-02-28T06:07:28.751Z,61.73
2019-02-28T06:09:55.767Z,62.56
2019-02-28T06:12:24.876Z,61.04
2019-02-28T06:14:54.316Z,60.52
2019-02-28T06:17:24.079Z,60.32
2019-02-28T06:19:53.428Z,59.87
2019-02-28T06:22:22.634Z,59.95
2019-02-28T06:24:51.778Z,59.48
2019-02-28T06:27:20.927Z,60.07
2019-02-28T06:29:50.667Z,59.76
2019-02-28T06:32:23.299Z,59.87
2019-02-28T06:34:48.810Z,59.13
2019-02-28T06:37:17.906Z,58.52
2019-02-28T06:39:46.941Z,58.48
2019-02-28T06:42:16.051Z,60.23
2019-02-28T06:44:45.420Z,58.41
2019-02-28T06:47:14.804Z,56.91
2019-02-28T06:49:43.448Z,57.04
2019-02-28T06:52:13.305Z,56.99
2019-02-28T06:54:42.242Z,56.79
2019-02-28T06:57:11.508Z,56.70
2019-02-28T06:59:40.478Z,55.27
2019-02-28T07:02:09.927Z,55.75
2019-02-28T07:04:38.799Z,56.46
2019-02-28T07:07:10.260Z,55.39
2019-02-28T07:09:37.264Z,54.80
2019-02-28T07:12:06.877Z,54.78
2019-02-28T07:14:36.621Z,54.54
2019-02-28T07:17:07.691Z,54.91
2019-02-28T07:19:34.988Z,54.83
2019-02-28T07:22:04.133Z,55.00
2019-02-28T07:24:37.305Z,54.74
2019-02-28T07:27:04.254Z,54.54
2019-02-28T07:29:32.159Z,53.70
2019-02-28T07:32:01.661Z,54.10
2019-02-28T07:34:31.115Z,54.22
2019-02-28T07:37:00.408Z,53.41
2019-02-28T07:39:29.432Z,53.79
2019-02-28T07:42:02.227Z,53.41
2019-02-28T07:44:28.395Z,52.80
2019-02-28T07:46:57.735Z,53.56
2019-02-28T07:49:27.428Z,52.96
2019-02-28T07:51:57.217Z,52.57
2019-02-28T07:54:26.012Z,52.37
2019-02-28T07:56:55.235Z,52.71
2019-02-28T07:59:24.638Z,52.31
2019-02-28T08:01:53.763Z,52.23
2019-02-28T08:04:22.915Z,52.43
2019-02-28T08:06:52.327Z,52.74
2019-02-28T08:09:26.091Z,52.11
2019-02-28T08:11:56.737Z,51.62
2019-02-28T08:14:24.536Z,50.92
2019-02-28T08:16:53.672Z,50.68
2019-02-28T08:19:27.196Z,50.90
2019-02-28T08:21:52.873Z,50.62
2019-02-28T08:24:22.704Z,50.05
2019-02-28T08:26:53.501Z,49.53
2019-02-28T08:29:21.087Z,50.07
2019-02-28T08:31:50.974Z,49.50
2019-02-28T08:34:20.639Z,49.04
2019-02-28T08:36:49.248Z,48.40
2019-02-28T08:39:18.534Z,48.13
2019-02-28T08:41:49.544Z,47.51
2019-02-28T08:44:22.806Z,46.96
2019-02-28T09:03:32.268Z,45.91
2019-02-28T09:06:04.191Z,46.03
2019-02-28T09:08:31.068Z,45.86
2019-02-28T09:11:01.924Z,46.53
2019-02-28T09:13:31.156Z,44.75
2019-02-28T09:16:01.983Z,44.68
2019-02-28T09:18:29.424Z,44.40
2019-02-28T09:20:58.576Z,43.47
2019-02-28T09:23:28.134Z,43.84
2019-02-28T09:25:57.655Z,43.31
2019-02-28T09:28:27.470Z,43.25
2019-02-28T09:30:57.253Z,41.88
2019-02-28T09:33:26.349Z,41.22
2019-02-28T09:35:55.342Z,40.94
2019-02-28T09:38:24.603Z,41.26
2019-02-28T09:40:54.047Z,41.28
2019-02-28T09:43:23.847Z,40.79
2019-02-28T09:45:52.115Z,40.24
2019-02-28T09:48:21.292Z,40.28
2019-02-28T09:50:50.337Z,40.51
2019-02-28T09:53:19.341Z,39.86
2019-02-28T09:55:48.418Z,40.74
2019-02-28T09:58:17.560Z,40.95
2019-02-28T10:00:50.212Z,40.82
2019-02-28T10:03:18.650Z,40.21
2019-02-28T10:05:45.356Z,39.66
2019-02-28T10:08:15.290Z,39.39
2019-02-28T10:10:44.678Z,38.83
2019-02-28T10:13:14.550Z,38.98
2019-02-28T10:15:43.236Z,39.17
2019-02-28T10:18:12.641Z,38.78
2019-02-28T10:20:42.075Z,38.87
2019-02-28T10:23:11.252Z,38.60
2019-02-28T10:25:43.505Z,37.91
2019-02-28T10:28:10.459Z,37.02
2019-02-28T10:30:40.571Z,37.46
2019-02-28T10:33:09.671Z,37.33
2019-02-28T10:35:38.919Z,37.00
2019-02-28T10:38:08.179Z,37.07
2019-02-28T10:40:37.272Z,36.75
2019-02-28T10:43:06.512Z,37.52
2019-02-28T10:45:41.265Z,36.60
2019-02-28T10:48:05.436Z,36.69
2019-02-28T10:50:34.866Z,36.34
2019-02-28T10:53:05.747Z,36.19
2019-02-28T10:55:33.369Z,35.02
2019-02-28T10:58:03.093Z,35.01
2019-02-28T11:00:33.709Z,34.61
2019-02-28T11:03:02.147Z,34.83
2019-02-28T11:05:32.097Z,34.71
2019-02-28T11:08:01.760Z,34.81
2019-02-28T11:10:35.499Z,34.76
2019-02-28T11:13:01.669Z,34.29
2019-02-28T11:15:30.861Z,33.03
2019-02-28T11:18:00.375Z,33.05
2019-02-28T11:20:30.160Z,33.17
2019-02-28T11:22:59.207Z,32.39
2019-02-28T11:25:28.275Z,33.62
2019-02-28T11:27:57.433Z,33.09
2019-02-28T11:30:26.703Z,32.33
2019-02-28T11:32:55.772Z,32.01
2019-02-28T11:35:25.544Z,31.34
2019-02-28T11:37:54.784Z,31.26
2019-02-28T11:40:24.791Z,29.56
2019-02-28T11:42:53.987Z,29.07
2019-02-28T11:45:25.558Z,28.70
2019-02-28T11:47:54.990Z,28.64
2019-02-28T11:50:24.266Z,27.96
2019-02-28T11:52:53.566Z,25.88
2019-02-28T11:55:22.926Z,26.21
2019-02-28T11:57:52.352Z,25.93
2019-02-28T12:00:25.799Z,26.46
2019-02-28T12:02:59.915Z,25.78
2019-02-28T12:05:24.591Z,26.00
2019-02-28T12:07:53.807Z,27.14
2019-02-28T12:10:26.909Z,27.08
2019-02-28T12:12:52.842Z,26.55
2019-02-28T12:15:23.238Z,26.98
2019-02-28T12:17:52.196Z,25.69
2019-02-28T12:20:25.914Z,25.49
2019-02-28T12:22:50.638Z,26.16
2019-02-28T12:25:20.190Z,24.84
2019-02-28T12:27:49.906Z,24.54
2019-02-28T12:30:21.948Z,24.11
2019-02-28T12:32:52.465Z,23.81
2019-02-28T12:35:19.960Z,24.05
2019-02-28T12:37:49.909Z,23.66
2019-02-28T12:40:21.224Z,22.95
2019-02-28T12:42:50.325Z,22.88
2019-02-28T12:45:24.405Z,22.32
2019-02-28T12:47:51.189Z,21.87
2019-02-28T12:50:20.589Z,22.02
2019-02-28T12:52:50.075Z,21.64
2019-02-28T12:55:18.878Z,21.66
2019-02-28T12:57:49.136Z,21.86
2019-02-28T13:00:23.405Z,21.41
2019-02-28T13:02:50.471Z,21.81
2019-02-28T13:05:20.432Z,21.17
2019-02-28T13:07:50.516Z,20.89
2019-02-28T13:10:20.109Z,20.04
2019-02-28T13:12:49.895Z,19.93
2019-02-28T13:15:18.847Z,19.71
2019-02-28T13:17:47.963Z,20.23
2019-02-28T13:20:18.595Z,19.49
2019-02-28T13:22:48.419Z,19.21
2019-02-28T13:25:19.476Z,19.04
2019-02-28T13:27:46.839Z,19.40
2019-02-28T13:30:18.189Z,19.03
2019-02-28T13:32:47.516Z,18.27
2019-02-28T13:35:18.685Z,17.84
2019-02-28T13:37:48.003Z,18.01
2019-02-28T13:40:17.488Z,17.42
2019-02-28T13:42:47.252Z,17.62
2019-02-28T13:45:23.303Z,18.25
2019-02-28T13:47:47.821Z,17.82
2019-02-28T13:50:17.511Z,17.63
2019-02-28T13:52:47.020Z,16.75
2019-02-28T13:55:18.989Z,17.33
2019-02-28T13:57:46.839Z,16.88
2019-02-28T14:00:22.041Z,16.71
2019-02-28T14:02:52.850Z,16.43
2019-02-28T14:05:21.934Z,17.09
2019-02-28T14:07:52.717Z,15.96
2019-02-28T14:10:22.222Z,16.15
2019-02-28T14:12:53.235Z,16.75
2019-02-28T14:15:24.990Z,16.82
2019-02-28T14:17:52.109Z,16.58
2019-02-28T14:20:24.397Z,17.96
2019-02-28T14:22:50.757Z,17.58
2019-02-28T14:25:20.835Z,17.59
2019-02-28T14:27:49.918Z,17.33
2019-02-28T14:30:22.767Z,17.96
2019-02-28T14:32:49.876Z,18.83
2019-02-28T14:35:22.706Z,18.81
2019-02-28T14:37:51.805Z,19.09
2019-02-28T14:40:18.785Z,18.47
2019-02-28T14:42:47.596Z,18.92
2019-02-28T14:45:17.013Z,19.16
2019-02-28T14:47:46.083Z,18.79
2019-02-28T14:50:15.496Z,18.52
2019-02-28T14:52:44.993Z,18.46
2019-02-28T14:55:15.669Z,18.68
2019-02-28T14:57:44.832Z,18.26
2019-02-28T15:00:17.256Z,18.47
2019-02-28T15:02:46.807Z,18.52
2019-02-28T15:05:16.609Z,18.60
2019-02-28T15:07:45.860Z,19.19
2019-02-28T15:10:16.569Z,20.26
2019-02-28T15:12:45.627Z,21.02
2019-02-28T15:15:18.023Z,21.02
2019-02-28T15:17:45.499Z,20.83
2019-02-28T15:20:14.796Z,20.90
2019-02-28T15:22:43.921Z,20.78
2019-02-28T15:25:15.333Z,20.82
2019-02-28T15:27:43.533Z,21.03
2019-02-28T15:30:14.880Z,21.21
2019-02-28T15:32:43.875Z,21.00
2019-02-28T15:35:15.369Z,20.57
2019-02-28T15:37:44.048Z,20.71
2019-02-28T15:56:59.246Z,21.27
2019-02-28T15:59:28.621Z,20.87
2019-02-28T16:01:57.673Z,21.89
2019-02-28T16:04:27.015Z,21.30
2019-02-28T16:06:57.944Z,21.38
2019-02-28T16:09:24.987Z,21.16
2019-02-28T16:11:54.335Z,21.81
2019-02-28T16:14:23.579Z,22.02
2019-02-28T16:16:52.854Z,22.14
2019-02-28T16:19:22.827Z,21.70
2019-02-28T16:21:51.793Z,21.27
2019-02-28T16:41:06.710Z,20.65
2019-02-28T16:43:35.803Z,20.66
2019-02-28T17:02:50.463Z,21.52
2019-02-28T17:22:05.623Z,26.46
2019-02-28T17:24:34.927Z,23.22
2019-02-28T17:27:09.200Z,22.92
2019-02-28T17:46:25.319Z,23.39
2019-02-28T17:49:04.647Z,23.39
2019-02-28T17:51:55.502Z,23.57
2019-02-28T17:54:29.499Z,23.92
2019-02-28T17:57:05.704Z,22.97
2019-02-28T17:59:44.924Z,23.46
2019-02-28T18:02:25.802Z,23.28
2019-02-28T18:05:29.877Z,23.19
2019-02-28T18:08:02.667Z,23.32
2019-02-28T18:10:46.189Z,23.61
2019-02-28T18:13:21.928Z,23.90
2019-02-28T18:16:01.599Z,24.04
2019-02-28T18:19:44.167Z,24.19
2019-02-28T18:24:37.939Z,24.28
2019-02-28T18:28:27.311Z,24.52
2019-02-28T18:31:06.046Z,24.10
2019-02-28T18:33:35.412Z,24.77
2019-02-28T18:36:08.460Z,25.30
2019-02-28T18:38:36.498Z,26.02
2019-02-28T18:41:06.448Z,26.50
2019-02-28T18:43:34.399Z,27.21
2019-02-28T18:46:03.604Z,28.02
2019-02-28T18:48:32.858Z,28.58
2019-02-28T18:51:02.029Z,28.91
2019-02-28T18:53:31.068Z,29.41
2019-02-28T18:56:00.278Z,30.14
2019-02-28T18:58:29.608Z,30.92
2019-02-28T19:00:58.889Z,30.37
2019-02-28T19:03:28.082Z,30.72
2019-02-28T19:05:57.407Z,30.87
2019-02-28T19:08:26.935Z,31.02
2019-02-28T19:10:55.982Z,31.25
2019-02-28T19:13:24.987Z,30.66
2019-02-28T19:15:54.452Z,30.84
2019-02-28T19:18:23.876Z,31.62
2019-02-28T19:20:55.660Z,31.42
2019-02-28T19:23:23.501Z,31.97
2019-02-28T19:25:52.474Z,31.78
2019-02-28T19:28:21.787Z,32.28
2019-02-28T19:30:50.883Z,32.06
2019-02-28T19:33:21.485Z,32.15
2019-02-28T19:35:51.112Z,32.54
2019-02-28T19:38:20.501Z,33.02
2019-02-28T19:40:49.590Z,32.53
2019-02-28T19:43:18.679Z,33.85
2019-02-28T19:45:47.679Z,33.16
2019-02-28T19:48:16.739Z,33.39
2019-02-28T19:50:45.995Z,32.98
2019-02-28T19:53:15.207Z,32.94
2019-02-28T19:55:44.321Z,33.83
2019-02-28T19:58:13.410Z,33.27
2019-02-28T20:00:42.996Z,34.12
2019-02-28T20:03:12.047Z,34.71
2019-02-28T20:05:41.104Z,34.17
2019-02-28T20:08:10.099Z,34.65
2019-02-28T20:10:39.980Z,34.40
2019-02-28T20:13:09.561Z,35.08
2019-02-28T20:15:39.985Z,35.17
2019-02-28T20:18:09.275Z,34.95
2019-02-28T20:20:38.123Z,34.79
2019-02-28T20:23:07.218Z,35.51
2019-02-28T20:25:36.312Z,36.24
2019-02-28T20:44:49.650Z,36.84
2019-02-28T20:47:18.575Z,37.56
2019-02-28T20:49:47.574Z,37.45
2019-02-28T20:52:16.690Z,37.54
2019-02-28T20:54:45.533Z,38.17
2019-02-28T20:57:14.845Z,38.03
2019-02-28T20:59:44.040Z,38.11
2019-02-28T21:02:13.228Z,38.66
2019-02-28T21:04:42.139Z,38.26
2019-02-28T21:07:11.315Z,38.63
2019-02-28T21:09:44.957Z,38.54
2019-02-28T21:12:10.248Z,38.87
2019-02-28T21:14:39.416Z,38.49
2019-02-28T21:17:08.760Z,39.17
2019-02-28T21:19:39.189Z,38.52
2019-02-28T21:22:08.681Z,38.85
2019-02-28T21:24:38.493Z,38.48
2019-02-28T21:27:07.525Z,38.55
2019-02-28T21:29:36.427Z,38.93
2019-02-28T21:32:05.555Z,38.64
2019-02-28T21:34:34.797Z,38.94
2019-02-28T21:37:03.977Z,38.38
2019-02-28T21:56:16.898Z,39.84
2019-02-28T21:58:46.277Z,39.68
2019-02-28T22:18:01.081Z,39.74
2019-02-28T22:20:30.384Z,40.07
2019-02-28T22:22:59.570Z,40.19
2019-02-28T22:25:28.798Z,39.41
2019-02-28T22:27:58.263Z,40.02
2019-02-28T22:30:42.122Z,39.56
2019-02-28T22:33:15.391Z,39.79
2019-02-28T22:35:49.548Z,39.93
2019-02-28T22:38:19.114Z,39.74
2019-02-28T22:40:48.564Z,40.15
2019-02-28T22:43:17.958Z,39.95
2019-02-28T22:45:47.030Z,41.01
2019-02-28T22:48:16.250Z,41.44
2019-02-28T22:50:45.795Z,41.36
2019-02-28T22:53:14.867Z,41.56
2019-02-28T22:55:44.685Z,41.96
2019-02-28T22:58:14.394Z,42.22
2019-02-28T23:00:55.283Z,41.80
2019-02-28T23:03:25.081Z,41.25
2019-02-28T23:05:54.168Z,41.97
2019-02-28T23:08:23.265Z,42.62
2019-02-28T23:10:52.519Z,42.18
2019-02-28T23:13:22.262Z,42.77
2019-02-28T23:15:51.581Z,43.48
2019-02-28T23:18:20.906Z,43.26
2019-02-28T23:20:51.531Z,44.44
2019-02-28T23:23:21.568Z,44.47
2019-02-28T23:25:50.503Z,43.76
2019-02-28T23:28:28.036Z,43.20
2019-02-28T23:31:37.968Z,43.90
2019-02-28T23:34:12.359Z,43.54
2019-02-28T23:36:41.187Z,43.68
2019-02-28T23:39:10.173Z,44.28
2019-02-28T23:41:39.653Z,44.07
2019-02-28T23:44:08.736Z,43.74
2019-02-28T23:46:37.975Z,44.60
2019-02-28T23:49:07.273Z,44.93
2019-02-28T23:51:37.090Z,44.41
2019-02-28T23:54:06.258Z,45.58
2019-02-28T23:56:35.419Z,44.73
2019-02-28T23:59:04.691Z,45.04
